createdAt,value
2019-03-29T00:02:22.367Z,23.13
2019-03-29T00:05:24.088Z,23.60
2019-03-29T00:08:24.976Z,22.37
2019-03-29T00:11:32.187Z,25.63
2019-03-29T00:14:33.444Z,26.33
2019-03-29T00:17:41.680Z,23.93
2019-03-29T00:20:44.804Z,23.87
2019-03-29T00:23:46.753Z,21.67
2019-03-29T00:26:48.770Z,23.33
2019-03-29T00:29:51.056Z,25.67
2019-03-29T00:32:53.160Z,24.90
2019-03-29T00:35:55.459Z,41.77
2019-03-29T00:38:56.572Z,67.20
2019-03-29T00:42:03.693Z,72.60
2019-03-29T00:45:14.816Z,26.80
2019-03-29T00:48:16.743Z,26.67
2019-03-29T00:51:18.891Z,25.80
2019-03-29T00:54:20.879Z,23.33
2019-03-29T00:57:22.687Z,22.00
2019-03-29T01:00:23.695Z,25.07
2019-03-29T01:03:31.722Z,25.03
2019-03-29T01:06:32.967Z,25.47
2019-03-29T01:09:34.931Z,22.50
2019-03-29T01:12:36.970Z,25.13
2019-03-29T01:15:38.202Z,25.47
2019-03-29T01:18:39.396Z,29.20
2019-03-29T01:21:41.388Z,33.17
2019-03-29T01:24:43.393Z,27.90
2019-03-29T01:27:46.078Z,24.50
2019-03-29T01:30:48.258Z,64.40
2019-03-29T01:33:51.010Z,28.00
2019-03-29T01:36:53.201Z,26.53
2019-03-29T01:39:55.551Z,65.10
2019-03-29T01:42:56.763Z,26.30
2019-03-29T01:45:57.580Z,24.50
2019-03-29T01:49:04.587Z,27.03
2019-03-29T01:52:05.815Z,25.23
2019-03-29T01:55:06.988Z,49.30
2019-03-29T01:58:18.112Z,37.23
2019-03-29T02:01:19.259Z,27.97
2019-03-29T02:04:21.148Z,24.23
2019-03-29T02:07:22.677Z,24.50
2019-03-29T02:10:24.753Z,34.23
2019-03-29T02:13:26.365Z,27.33
2019-03-29T02:16:29.263Z,23.07
2019-03-29T02:19:31.973Z,64.47
2019-03-29T02:22:33.568Z,28.07
2019-03-29T02:25:35.535Z,28.63
2019-03-29T02:28:37.753Z,24.60
2019-03-29T02:31:42.107Z,56.37
2019-03-29T02:34:43.912Z,24.57
2019-03-29T02:37:45.853Z,25.90
2019-03-29T02:40:46.794Z,23.70
2019-03-29T02:43:54.015Z,23.43
2019-03-29T02:47:01.048Z,23.90
2019-03-29T02:50:09.136Z,22.20
2019-03-29T02:53:11.208Z,22.53
2019-03-29T02:56:12.277Z,24.77
2019-03-29T02:59:14.339Z,23.90
2019-03-29T03:02:16.415Z,22.40
2019-03-29T03:05:18.355Z,25.63
2019-03-29T03:08:19.418Z,23.37
2019-03-29T03:11:29.686Z,27.53
2019-03-29T03:14:36.830Z,25.90
2019-03-29T03:17:47.131Z,28.20
2019-03-29T03:20:49.085Z,28.73
2019-03-29T03:23:50.240Z,27.43
2019-03-29T03:27:01.337Z,26.30
2019-03-29T03:30:03.815Z,27.73
2019-03-29T03:33:05.230Z,34.50
2019-03-29T03:36:07.097Z,96.43
2019-03-29T03:39:10.189Z,61.77
2019-03-29T03:42:11.257Z,26.80
2019-03-29T03:45:18.433Z,32.13
2019-03-29T03:48:20.303Z,28.60
2019-03-29T03:51:21.402Z,31.27
2019-03-29T03:54:23.173Z,35.27
2019-03-29T03:57:25.045Z,30.27
2019-03-29T04:00:26.229Z,46.10
2019-03-29T04:03:28.275Z,56.13
2019-03-29T04:06:30.779Z,41.70
2019-03-29T04:09:48.572Z,145.63
2019-03-29T04:12:36.877Z,31.17
2019-03-29T04:15:38.877Z,50.63
2019-03-29T04:18:39.912Z,62.80
2019-03-29T04:21:41.884Z,35.10
2019-03-29T04:24:44.040Z,127.40
2019-03-29T04:27:45.293Z,40.23
2019-03-29T04:30:46.577Z,36.63
2019-03-29T04:33:48.472Z,35.07
2019-03-29T04:36:50.529Z,30.27
2019-03-29T04:40:06.247Z,29.10
2019-03-29T04:42:54.821Z,29.67
2019-03-29T04:45:56.776Z,33.00
2019-03-29T04:48:57.875Z,34.37
2019-03-29T04:51:59.907Z,30.50
2019-03-29T04:55:01.917Z,37.50
2019-03-29T04:58:03.188Z,32.17
2019-03-29T05:01:04.375Z,33.67
2019-03-29T05:04:11.620Z,65.27
2019-03-29T05:07:12.733Z,29.73
2019-03-29T05:10:21.279Z,30.03
2019-03-29T05:13:16.816Z,31.77
2019-03-29T05:16:23.931Z,27.07
2019-03-29T05:19:24.831Z,29.10
2019-03-29T05:22:35.174Z,24.40
2019-03-29T05:25:37.115Z,26.60
2019-03-29T05:28:38.269Z,26.73
2019-03-29T05:31:40.323Z,24.57
2019-03-29T05:34:41.447Z,24.30
2019-03-29T05:37:48.624Z,26.73
2019-03-29T05:40:49.951Z,27.40
2019-03-29T05:43:56.940Z,20.80
2019-03-29T05:46:58.936Z,20.60
2019-03-29T05:50:05.845Z,21.40
2019-03-29T05:53:07.928Z,17.97
2019-03-29T05:56:09.973Z,20.57
2019-03-29T05:59:11.832Z,16.20
2019-03-29T06:02:14.736Z,15.87
2019-03-29T06:05:16.563Z,17.37
2019-03-29T06:08:17.744Z,14.83
2019-03-29T06:11:19.844Z,14.73
2019-03-29T06:14:21.732Z,15.07
2019-03-29T06:17:22.851Z,23.47
2019-03-29T06:20:30.249Z,16.90
2019-03-29T06:23:33.114Z,15.30
2019-03-29T06:26:34.953Z,14.77
2019-03-29T06:29:37.004Z,16.13
2019-03-29T06:32:38.981Z,13.27
2019-03-29T06:35:42.228Z,15.13
2019-03-29T06:38:44.316Z,14.90
2019-03-29T06:41:45.425Z,15.90
2019-03-29T06:44:55.708Z,24.43
2019-03-29T06:48:06.765Z,16.20
2019-03-29T06:51:07.952Z,17.80
2019-03-29T06:54:19.100Z,17.53
2019-03-29T06:57:21.236Z,16.50
2019-03-29T07:00:22.248Z,16.20
2019-03-29T07:03:29.696Z,15.07
2019-03-29T07:06:31.777Z,15.23
2019-03-29T07:09:33.731Z,16.87
2019-03-29T07:12:35.844Z,13.90
2019-03-29T07:15:36.848Z,14.23
2019-03-29T07:18:38.269Z,14.93
2019-03-29T07:21:40.312Z,16.40
2019-03-29T07:24:41.605Z,17.23
2019-03-29T07:27:52.423Z,13.20
2019-03-29T07:30:52.950Z,13.33
2019-03-29T07:33:54.191Z,13.60
2019-03-29T07:36:55.136Z,12.60
2019-03-29T07:40:03.215Z,12.63
2019-03-29T07:43:07.292Z,13.87
2019-03-29T07:46:08.277Z,11.90
2019-03-29T07:49:15.128Z,11.67
2019-03-29T07:52:17.185Z,12.20
2019-03-29T07:55:18.017Z,11.43
2019-03-29T07:58:29.216Z,10.93
2019-03-29T08:01:32.561Z,11.00
2019-03-29T08:04:34.264Z,11.10
2019-03-29T08:07:36.431Z,11.70
2019-03-29T08:10:38.720Z,11.90
2019-03-29T08:13:40.700Z,12.47
2019-03-29T08:16:42.715Z,11.70
2019-03-29T08:19:43.920Z,11.90
2019-03-29T08:22:45.947Z,14.87
2019-03-29T08:25:47.135Z,12.50
2019-03-29T08:28:54.582Z,12.40
2019-03-29T08:31:56.580Z,17.60
2019-03-29T08:34:57.702Z,16.90
2019-03-29T08:37:59.740Z,21.43
2019-03-29T08:41:01.908Z,12.20
2019-03-29T08:44:03.744Z,12.73
2019-03-29T08:47:04.787Z,14.90
2019-03-29T08:50:14.929Z,12.03
2019-03-29T08:53:27.616Z,12.43
2019-03-29T08:56:29.365Z,13.10
2019-03-29T08:59:31.179Z,11.77
2019-03-29T09:02:32.381Z,12.33
2019-03-29T09:05:34.460Z,12.40
2019-03-29T09:08:36.379Z,12.70
2019-03-29T09:11:39.138Z,20.93
2019-03-29T09:14:40.604Z,12.60
2019-03-29T09:17:41.656Z,13.23
2019-03-29T09:20:43.512Z,14.07
2019-03-29T09:23:44.801Z,12.30
2019-03-29T09:26:46.803Z,12.67
2019-03-29T09:29:48.039Z,55.10
2019-03-29T09:32:51.480Z,12.80
2019-03-29T09:35:53.200Z,12.13
2019-03-29T09:38:54.425Z,12.60
2019-03-29T09:41:55.432Z,11.70
2019-03-29T09:44:56.470Z,12.00
2019-03-29T09:47:57.709Z,12.40
2019-03-29T09:50:58.749Z,12.50
2019-03-29T09:53:59.647Z,12.00
2019-03-29T09:57:09.774Z,12.50
2019-03-29T10:00:19.203Z,19.83
2019-03-29T10:03:13.972Z,12.33
2019-03-29T10:06:16.071Z,17.13
2019-03-29T10:09:18.000Z,16.43
2019-03-29T10:12:19.880Z,13.10
2019-03-29T10:15:21.017Z,12.63
2019-03-29T10:18:23.108Z,13.50
2019-03-29T10:21:24.230Z,12.63
2019-03-29T10:27:13.279Z,12.50
2019-03-29T10:30:19.630Z,12.47
2019-03-29T10:33:26.772Z,13.20
2019-03-29T10:36:27.890Z,12.07
2019-03-29T10:39:35.798Z,14.40
2019-03-29T10:42:40.050Z,21.77
2019-03-29T10:45:40.815Z,13.43
2019-03-29T10:48:42.256Z,13.57
2019-03-29T10:51:43.446Z,13.00
2019-03-29T10:54:44.572Z,20.13
2019-03-29T10:57:51.651Z,12.23
2019-03-29T11:00:53.658Z,11.60
2019-03-29T11:03:54.695Z,13.47
2019-03-29T11:07:01.938Z,12.37
2019-03-29T11:10:03.785Z,12.13
2019-03-29T11:13:13.138Z,15.10
2019-03-29T11:16:09.996Z,18.47
2019-03-29T11:19:12.294Z,12.77
2019-03-29T11:22:13.418Z,14.40
2019-03-29T11:25:16.395Z,15.10
2019-03-29T11:28:18.432Z,12.20
2019-03-29T11:31:19.480Z,16.50
2019-03-29T11:34:21.441Z,17.63
2019-03-29T11:37:23.435Z,16.53
2019-03-29T11:40:24.588Z,16.77
2019-03-29T11:43:27.501Z,15.23
2019-03-29T11:46:29.885Z,13.97
2019-03-29T11:49:31.855Z,13.57
2019-03-29T11:52:34.036Z,39.40
2019-03-29T11:55:36.923Z,13.90
2019-03-29T11:58:37.992Z,12.97
2019-03-29T12:01:39.152Z,12.30
2019-03-29T12:04:46.252Z,13.60
2019-03-29T12:07:47.584Z,19.60
2019-03-29T12:10:49.709Z,14.27
2019-03-29T12:13:50.640Z,13.07
2019-03-29T12:30:32.457Z,15.83
2019-03-29T12:33:33.585Z,13.50
2019-03-29T12:36:34.648Z,13.10
2019-03-29T12:39:36.748Z,13.40
2019-03-29T12:42:39.953Z,13.40
2019-03-29T12:45:40.975Z,13.90
2019-03-29T12:48:42.171Z,14.07
2019-03-29T12:51:46.370Z,14.10
2019-03-29T12:54:45.673Z,17.17
2019-03-29T12:57:46.701Z,14.67
2019-03-29T13:00:46.832Z,14.30
2019-03-29T13:03:47.826Z,14.53
2019-03-29T13:06:48.704Z,15.43
2019-03-29T13:09:49.882Z,14.00
2019-03-29T13:12:50.829Z,17.03
2019-03-29T13:15:51.839Z,13.87
2019-03-29T13:18:53.800Z,13.90
2019-03-29T13:21:54.619Z,18.07
2019-03-29T13:24:55.900Z,14.80
2019-03-29T13:27:59.425Z,15.93
2019-03-29T13:30:59.076Z,16.17
2019-03-29T13:34:00.331Z,14.77
2019-03-29T13:37:01.251Z,24.87
2019-03-29T13:40:02.328Z,13.80
2019-03-29T13:43:04.180Z,15.00
2019-03-29T13:46:05.392Z,15.10
2019-03-29T13:49:06.429Z,15.17
2019-03-29T13:52:07.459Z,16.87
2019-03-29T13:55:07.829Z,14.17
2019-03-29T13:58:08.584Z,14.47
2019-03-29T14:01:08.718Z,16.00
2019-03-29T14:04:09.731Z,19.10
2019-03-29T14:07:10.924Z,17.13
2019-03-29T14:10:11.920Z,15.70
2019-03-29T14:13:12.994Z,19.43
2019-03-29T14:16:13.976Z,19.27
2019-03-29T14:19:14.984Z,20.23
2019-03-29T14:22:16.155Z,17.03
2019-03-29T14:25:17.019Z,17.30
2019-03-29T14:28:18.181Z,20.67
2019-03-29T14:31:19.307Z,23.57
2019-03-29T14:34:20.212Z,14.77
2019-03-29T14:37:21.275Z,13.67
2019-03-29T14:40:22.492Z,16.87
2019-03-29T14:43:23.667Z,17.43
2019-03-29T14:46:24.853Z,13.30
2019-03-29T14:49:25.902Z,15.20
2019-03-29T14:52:26.944Z,14.97
2019-03-29T14:55:29.011Z,14.80
2019-03-29T14:58:30.019Z,15.00
2019-03-29T15:01:30.403Z,19.80
2019-03-29T15:04:31.211Z,15.60
2019-03-29T15:07:32.272Z,20.10
2019-03-29T15:10:33.180Z,16.97
2019-03-29T15:13:34.181Z,14.33
2019-03-29T15:16:35.113Z,15.50
2019-03-29T15:19:36.194Z,17.40
2019-03-29T15:22:37.228Z,15.17
2019-03-29T15:25:40.541Z,15.73
2019-03-29T15:28:41.200Z,15.40
2019-03-29T15:31:42.230Z,14.83
2019-03-29T15:34:43.305Z,15.10
2019-03-29T15:37:44.251Z,14.77
2019-03-29T15:40:45.319Z,14.87
2019-03-29T15:43:46.541Z,20.40
2019-03-29T15:46:47.591Z,15.17
2019-03-29T15:49:56.003Z,16.93
2019-03-29T15:52:52.815Z,15.50
2019-03-29T15:55:53.897Z,15.67
2019-03-29T15:58:55.036Z,14.37
2019-03-29T16:01:56.008Z,16.17
2019-03-29T16:04:56.954Z,14.47
2019-03-29T16:07:57.716Z,15.37
2019-03-29T16:10:58.803Z,15.40
2019-03-29T16:14:00.023Z,14.80
2019-03-29T16:17:01.023Z,16.17
2019-03-29T16:20:02.193Z,15.73
2019-03-29T16:23:03.574Z,14.73
2019-03-29T16:26:04.546Z,16.03
2019-03-29T16:29:05.585Z,16.07
2019-03-29T16:32:06.620Z,21.00
2019-03-29T16:35:07.647Z,18.20
2019-03-29T16:38:08.796Z,16.70
2019-03-29T16:41:09.916Z,15.37
2019-03-29T16:44:11.051Z,19.53
2019-03-29T16:47:12.228Z,15.97
2019-03-29T16:50:13.260Z,31.63
2019-03-29T16:53:14.380Z,15.63
2019-03-29T16:56:15.406Z,14.90
2019-03-29T16:59:16.527Z,16.03
2019-03-29T17:02:17.748Z,16.47
2019-03-29T17:05:18.891Z,16.00
2019-03-29T17:08:18.992Z,20.10
2019-03-29T17:11:20.108Z,19.63
2019-03-29T17:14:21.196Z,17.60
2019-03-29T17:17:22.267Z,18.60
2019-03-29T17:20:23.600Z,24.20
2019-03-29T17:23:24.516Z,17.63
2019-03-29T17:26:25.592Z,18.30
2019-03-29T17:29:26.424Z,19.17
2019-03-29T17:32:27.536Z,18.50
2019-03-29T17:35:28.766Z,17.50
2019-03-29T17:38:29.712Z,18.73
2019-03-29T17:41:30.840Z,19.30
2019-03-29T17:44:31.768Z,18.23
2019-03-29T17:47:33.038Z,17.77
2019-03-29T17:50:34.279Z,18.20
2019-03-29T17:53:36.300Z,22.63
2019-03-29T17:56:37.309Z,18.50
2019-03-29T17:59:38.047Z,19.80
2019-03-29T18:02:38.765Z,20.33
2019-03-29T18:05:40.361Z,22.33
2019-03-29T18:08:41.479Z,22.50
2019-03-29T18:11:42.698Z,22.40
2019-03-29T18:14:43.575Z,26.50
2019-03-29T18:17:43.934Z,30.03
2019-03-29T18:20:45.076Z,30.07
2019-03-29T18:23:46.258Z,24.97
2019-03-29T18:26:47.167Z,24.17
2019-03-29T18:29:49.367Z,23.70
2019-03-29T18:32:51.364Z,23.03
2019-03-29T18:35:52.455Z,22.03
2019-03-29T18:38:53.536Z,21.60
2019-03-29T18:41:54.344Z,25.13
2019-03-29T18:44:55.490Z,28.33
2019-03-29T18:47:55.698Z,30.73
2019-03-29T18:51:01.712Z,27.10
2019-03-29T18:54:02.731Z,23.00
2019-03-29T18:57:03.839Z,23.80
2019-03-29T19:00:04.989Z,27.63
2019-03-29T19:03:06.184Z,27.33
2019-03-29T19:06:07.328Z,28.23
2019-03-29T19:09:08.469Z,29.73
2019-03-29T19:12:09.509Z,27.53
2019-03-29T19:15:10.409Z,27.83
2019-03-29T19:18:11.340Z,32.13
2019-03-29T19:21:12.228Z,49.97
2019-03-29T19:24:13.380Z,42.50
2019-03-29T19:27:14.268Z,37.30
2019-03-29T19:30:15.305Z,40.00
2019-03-29T19:33:16.129Z,37.53
2019-03-29T19:36:20.624Z,41.73
2019-03-29T19:39:21.484Z,39.70
2019-03-29T19:42:22.597Z,43.97
2019-03-29T19:45:23.739Z,37.90
2019-03-29T19:48:24.828Z,31.63
2019-03-29T19:51:25.920Z,50.30
2019-03-29T19:54:26.314Z,79.97
2019-03-29T19:57:32.293Z,37.50
2019-03-29T20:00:33.327Z,29.27
2019-03-29T20:03:34.240Z,29.03
2019-03-29T20:06:35.623Z,29.00
2019-03-29T20:09:36.659Z,22.50
2019-03-29T20:12:37.533Z,25.07
2019-03-29T20:15:38.699Z,32.50
2019-03-29T20:18:39.828Z,29.33
2019-03-29T20:21:40.668Z,36.10
2019-03-29T20:24:41.860Z,34.30
2019-03-29T20:27:43.004Z,35.50
2019-03-29T20:30:44.046Z,24.97
2019-03-29T20:33:32.000Z,37.93
2019-03-29T20:36:32.386Z,38.83
2019-03-29T20:39:33.471Z,33.60
2019-03-29T20:42:34.396Z,26.17
2019-03-29T20:45:34.624Z,32.43
2019-03-29T20:48:35.848Z,38.00
2019-03-29T20:51:36.844Z,47.63
2019-03-29T20:54:38.037Z,49.83
2019-03-29T20:57:39.065Z,50.93
2019-03-29T21:00:40.094Z,38.23
2019-03-29T21:03:41.248Z,36.00
2019-03-29T21:06:42.452Z,41.67
2019-03-29T21:09:44.792Z,33.40
2019-03-29T21:12:45.788Z,40.50
2019-03-29T21:15:46.872Z,39.43
2019-03-29T21:18:47.997Z,64.23
2019-03-29T21:21:49.207Z,58.30
2019-03-29T21:24:50.345Z,58.00
2019-03-29T21:27:51.485Z,111.30
2019-03-29T21:30:52.616Z,95.57
2019-03-29T21:33:54.700Z,113.17
2019-03-29T21:36:56.690Z,81.00
2019-03-29T21:39:57.689Z,55.50
2019-03-29T21:43:01.617Z,27.23
2019-03-29T21:46:01.850Z,34.73
2019-03-29T21:49:03.500Z,40.88
2019-03-29T21:52:04.418Z,30.40
2019-03-29T21:55:05.476Z,34.77
2019-03-29T21:58:06.596Z,27.70
2019-03-29T22:01:07.647Z,28.27
2019-03-29T22:04:08.719Z,28.30
2019-03-29T22:07:10.000Z,30.00
2019-03-29T22:10:11.015Z,34.43
2019-03-29T22:13:11.912Z,28.30
2019-03-29T22:16:13.111Z,33.00
2019-03-29T22:19:14.147Z,32.60
2019-03-29T22:22:15.253Z,26.17
2019-03-29T22:25:16.373Z,28.60
2019-03-29T22:28:17.567Z,35.70
2019-03-29T22:31:18.506Z,32.67
2019-03-29T22:34:19.733Z,31.87
2019-03-29T22:37:21.066Z,30.63
2019-03-29T22:40:23.188Z,29.93
2019-03-29T22:43:24.168Z,28.03
2019-03-29T22:46:25.356Z,33.07
2019-03-29T22:49:26.477Z,31.20
2019-03-29T22:52:27.456Z,29.87
2019-03-29T22:55:28.487Z,29.00
2019-03-29T22:58:29.572Z,31.33
2019-03-29T23:01:30.704Z,29.37
2019-03-29T23:04:32.548Z,32.03
2019-03-29T23:07:34.715Z,32.20
2019-03-29T23:10:34.968Z,31.57
2019-03-29T23:13:35.939Z,28.80
2019-03-29T23:16:37.168Z,35.50
2019-03-29T23:19:38.164Z,32.27
2019-03-29T23:22:39.252Z,29.60
2019-03-29T23:25:40.454Z,29.10
2019-03-29T23:28:42.264Z,33.83
2019-03-29T23:31:43.358Z,30.50
2019-03-29T23:34:44.399Z,30.63
2019-03-29T23:37:45.717Z,31.50
2019-03-29T23:40:46.568Z,27.97
2019-03-29T23:43:47.780Z,33.20
2019-03-29T23:46:48.848Z,29.10
2019-03-29T23:49:50.089Z,29.30
2019-03-29T23:52:50.723Z,31.17
2019-03-29T23:55:51.713Z,28.93
2019-03-29T23:58:52.792Z,30.47
